sensor_id;sensor_type;location;lat;lon;timestamp;pressure;altitude;pressure_sealevel;temperature;humidity
83718;BME280;73701;52.234;21.288;2024-03-17T00:01:04;100490.91;;;6.10;84.66
83718;BME280;73701;52.234;21.288;2024-03-17T00:03:30;100496.00;;;6.14;84.33
83718;BME280;73701;52.234;21.288;2024-03-17T00:06:00;100477.25;;;6.04;83.46
83718;BME280;73701;52.234;21.288;2024-03-17T00:08:25;100494.44;;;6.04;82.30
83718;BME280;73701;52.234;21.288;2024-03-17T00:10:51;100447.75;;;5.68;82.55
83718;BME280;73701;52.234;21.288;2024-03-17T00:13:17;100498.03;;;5.92;82.68
83718;BME280;73701;52.234;21.288;2024-03-17T00:15:42;100494.59;;;5.93;82.65
83718;BME280;73701;52.234;21.288;2024-03-17T00:18:07;100496.28;;;5.94;80.73
83718;BME280;73701;52.234;21.288;2024-03-17T00:20:33;100492.81;;;5.97;80.32
83718;BME280;73701;52.234;21.288;2024-03-17T00:22:59;100493.91;;;5.83;82.11
83718;BME280;73701;52.234;21.288;2024-03-17T00:25:24;100494.66;;;5.88;80.88
83718;BME280;73701;52.234;21.288;2024-03-17T00:27:49;100526.50;;;5.86;81.74
83718;BME280;73701;52.234;21.288;2024-03-17T00:30:15;100497.44;;;5.76;80.66
83718;BME280;73701;52.234;21.288;2024-03-17T00:32:41;100516.06;;;5.94;79.30
83718;BME280;73701;52.234;21.288;2024-03-17T00:35:09;100492.34;;;5.73;78.24
83718;BME280;73701;52.234;21.288;2024-03-17T00:37:35;100520.44;;;5.90;78.11
83718;BME280;73701;52.234;21.288;2024-03-17T00:40:02;100522.97;;;5.93;79.29
83718;BME280;73701;52.234;21.288;2024-03-17T00:42:27;100521.22;;;5.94;77.44
83718;BME280;73701;52.234;21.288;2024-03-17T00:44:52;100522.09;;;5.93;77.79
83718;BME280;73701;52.234;21.288;2024-03-17T00:47:18;100531.59;;;5.91;78.54
83718;BME280;73701;52.234;21.288;2024-03-17T00:49:43;100508.69;;;5.72;79.06
83718;BME280;73701;52.234;21.288;2024-03-17T00:52:08;100529.03;;;5.89;78.81
83718;BME280;73701;52.234;21.288;2024-03-17T00:54:34;100526.44;;;5.91;76.96
83718;BME280;73701;52.234;21.288;2024-03-17T00:56:59;100530.75;;;5.90;76.65
83718;BME280;73701;52.234;21.288;2024-03-17T00:59:25;100525.66;;;5.85;75.73
83718;BME280;73701;52.234;21.288;2024-03-17T01:01:50;100525.66;;;5.85;79.19
83718;BME280;73701;52.234;21.288;2024-03-17T01:04:15;100527.50;;;5.79;76.55
83718;BME280;73701;52.234;21.288;2024-03-17T01:06:41;100525.66;;;5.85;75.99
83718;BME280;73701;52.234;21.288;2024-03-17T01:09:07;100520.69;;;5.75;74.87
83718;BME280;73701;52.234;21.288;2024-03-17T01:11:33;100489.13;;;5.59;75.92
83718;BME280;73701;52.234;21.288;2024-03-17T01:13:58;100528.44;;;5.73;74.81
83718;BME280;73701;52.234;21.288;2024-03-17T01:16:24;100530.06;;;5.79;75.40
83718;BME280;73701;52.234;21.288;2024-03-17T01:18:49;100497.84;;;5.50;72.61
83718;BME280;73701;52.234;21.288;2024-03-17T01:21:14;100527.69;;;5.65;73.06
83718;BME280;73701;52.234;21.288;2024-03-17T01:23:40;100525.88;;;5.72;71.14
83718;BME280;73701;52.234;21.288;2024-03-17T01:26:05;100527.66;;;5.66;73.38
83718;BME280;73701;52.234;21.288;2024-03-17T01:28:30;100139.09;;;3.17;70.05
83718;BME280;73701;52.234;21.288;2024-03-17T01:30:56;100479.31;;;5.26;70.43
83718;BME280;73701;52.234;21.288;2024-03-17T01:33:21;100530.50;;;5.48;69.63
83718;BME280;73701;52.234;21.288;2024-03-17T01:35:46;100511.84;;;5.32;70.02
83718;BME280;73701;52.234;21.288;2024-03-17T01:38:11;100533.13;;;5.46;69.92
83718;BME280;73701;52.234;21.288;2024-03-17T01:40:37;100546.91;;;5.42;70.67
83718;BME280;73701;52.234;21.288;2024-03-17T01:43:02;100545.16;;;5.43;68.76
83718;BME280;73701;52.234;21.288;2024-03-17T01:45:32;100535.06;;;5.29;69.71
83718;BME280;73701;52.234;21.288;2024-03-17T01:48:00;100525.84;;;5.11;69.84
83718;BME280;73701;52.234;21.288;2024-03-17T01:50:31;100546.22;;;5.29;70.48
83718;BME280;73701;52.234;21.288;2024-03-17T01:53:00;100489.97;;;4.98;69.49
83718;BME280;73701;52.234;21.288;2024-03-17T01:55:27;100557.44;;;5.24;69.22
83718;BME280;73701;52.234;21.288;2024-03-17T01:57:53;100554.13;;;5.15;69.80
83718;BME280;73701;52.234;21.288;2024-03-17T02:00:18;100560.31;;;5.00;69.32
83718;BME280;73701;52.234;21.288;2024-03-17T02:02:44;100507.53;;;4.64;69.38
83718;BME280;73701;52.234;21.288;2024-03-17T02:05:09;100557.84;;;4.91;69.78
83718;BME280;73701;52.234;21.288;2024-03-17T02:07:35;100542.53;;;4.80;70.73
83718;BME280;73701;52.234;21.288;2024-03-17T02:10:00;100438.69;;;4.08;70.41
83718;BME280;73701;52.234;21.288;2024-03-17T02:12:29;100570.75;;;4.87;70.03
83718;BME280;73701;52.234;21.288;2024-03-17T02:14:54;100559.63;;;4.83;70.96
83718;BME280;73701;52.234;21.288;2024-03-17T02:17:19;100572.59;;;4.77;70.76
83718;BME280;73701;52.234;21.288;2024-03-17T02:19:45;100570.81;;;4.82;70.33
83718;BME280;73701;52.234;21.288;2024-03-17T02:22:13;100576.88;;;4.76;70.32
83718;BME280;73701;52.234;21.288;2024-03-17T02:24:40;100579.47;;;4.76;70.00
83718;BME280;73701;52.234;21.288;2024-03-17T02:27:05;100578.53;;;4.83;70.39
83718;BME280;73701;52.234;21.288;2024-03-17T02:29:30;100554.66;;;4.71;71.26
83718;BME280;73701;52.234;21.288;2024-03-17T02:31:55;100484.88;;;4.14;71.07
83718;BME280;73701;52.234;21.288;2024-03-17T02:34:21;100576.13;;;4.66;71.93
83718;BME280;73701;52.234;21.288;2024-03-17T02:36:46;100582.13;;;4.65;72.04
83718;BME280;73701;52.234;21.288;2024-03-17T02:39:12;100572.75;;;4.60;71.88
83718;BME280;73701;52.234;21.288;2024-03-17T02:41:56;100560.00;;;4.51;72.00
83718;BME280;73701;52.234;21.288;2024-03-17T02:44:21;100586.47;;;4.63;72.59
83718;BME280;73701;52.234;21.288;2024-03-17T02:46:46;100526.75;;;4.29;72.77
83718;BME280;73701;52.234;21.288;2024-03-17T02:49:12;100548.97;;;4.35;73.15
83718;BME280;73701;52.234;21.288;2024-03-17T02:51:39;100582.25;;;4.55;72.64
83718;BME280;73701;52.234;21.288;2024-03-17T02:54:04;100569.53;;;4.39;73.67
83718;BME280;73701;52.234;21.288;2024-03-17T02:56:31;100573.00;;;4.35;73.50
83718;BME280;73701;52.234;21.288;2024-03-17T02:58:56;100594.31;;;4.46;73.92
83718;BME280;73701;52.234;21.288;2024-03-17T03:01:21;100594.38;;;4.43;73.75
83718;BME280;73701;52.234;21.288;2024-03-17T03:03:47;100575.63;;;4.26;72.60
83718;BME280;73701;52.234;21.288;2024-03-17T03:06:13;100593.53;;;4.38;72.83
83718;BME280;73701;52.234;21.288;2024-03-17T03:08:39;100597.03;;;4.29;75.57
83718;BME280;73701;52.234;21.288;2024-03-17T03:11:07;100557.03;;;3.99;74.09
83718;BME280;73701;52.234;21.288;2024-03-17T03:13:36;100564.72;;;3.99;73.70
83718;BME280;73701;52.234;21.288;2024-03-17T03:16:01;100570.72;;;3.98;72.06
83718;BME280;73701;52.234;21.288;2024-03-17T03:18:26;100606.56;;;4.17;72.43
83718;BME280;73701;52.234;21.288;2024-03-17T03:20:52;100609.94;;;4.22;72.51
83718;BME280;73701;52.234;21.288;2024-03-17T03:23:20;100515.50;;;3.26;72.55
83718;BME280;73701;52.234;21.288;2024-03-17T03:25:46;100607.53;;;4.00;73.55
83718;BME280;73701;52.234;21.288;2024-03-17T03:28:15;100606.69;;;4.00;73.01
83718;BME280;73701;52.234;21.288;2024-03-17T03:30:41;100607.53;;;4.02;72.47
83718;BME280;73701;52.234;21.288;2024-03-17T03:33:06;100596.44;;;3.98;73.07
83718;BME280;73701;52.234;21.288;2024-03-17T03:35:31;100607.53;;;4.05;71.95
83718;BME280;73701;52.234;21.288;2024-03-17T03:37:58;100604.94;;;4.03;72.52
83718;BME280;73701;52.234;21.288;2024-03-17T03:40:23;100600.72;;;3.94;74.72
83718;BME280;73701;52.234;21.288;2024-03-17T03:42:50;100599.03;;;3.90;73.07
83718;BME280;73701;52.234;21.288;2024-03-17T03:45:15;100599.88;;;3.94;71.88
83718;BME280;73701;52.234;21.288;2024-03-17T03:47:41;100600.81;;;3.84;72.44
83718;BME280;73701;52.234;21.288;2024-03-17T03:50:08;100582.88;;;3.73;73.08
83718;BME280;73701;52.234;21.288;2024-03-17T03:52:37;100594.84;;;3.78;74.00
83718;BME280;73701;52.234;21.288;2024-03-17T03:55:03;100606.00;;;3.71;72.72
83718;BME280;73701;52.234;21.288;2024-03-17T03:57:33;100608.56;;;3.76;73.71
83718;BME280;73701;52.234;21.288;2024-03-17T03:59:59;100623.13;;;3.75;74.09
83718;BME280;73701;52.234;21.288;2024-03-17T04:02:25;100553.91;;;3.49;73.24
83718;BME280;73701;52.234;21.288;2024-03-17T04:04:56;100594.00;;;3.72;73.88
83718;BME280;73701;52.234;21.288;2024-03-17T04:07:21;100600.00;;;3.75;75.76
83718;BME280;73701;52.234;21.288;2024-03-17T04:09:46;100603.50;;;3.63;73.56
83718;BME280;73701;52.234;21.288;2024-03-17T04:12:12;100611.22;;;3.63;73.99
83718;BME280;73701;52.234;21.288;2024-03-17T04:14:37;100611.22;;;3.56;73.99
83718;BME280;73701;52.234;21.288;2024-03-17T04:17:03;100618.13;;;3.52;74.03
83718;BME280;73701;52.234;21.288;2024-03-17T04:19:28;100613.84;;;3.50;74.36
83718;BME280;73701;52.234;21.288;2024-03-17T04:21:54;100630.97;;;3.46;75.31
83718;BME280;73701;52.234;21.288;2024-03-17T04:24:19;100566.91;;;3.18;75.30
83718;BME280;73701;52.234;21.288;2024-03-17T04:26:45;100619.81;;;3.50;75.84
83718;BME280;73701;52.234;21.288;2024-03-17T04:29:10;100616.41;;;3.51;75.59
83718;BME280;73701;52.234;21.288;2024-03-17T04:31:35;100593.31;;;3.39;75.60
83718;BME280;73701;52.234;21.288;2024-03-17T04:34:01;100619.00;;;3.43;77.09
83718;BME280;73701;52.234;21.288;2024-03-17T04:36:26;100618.13;;;3.43;75.87
83718;BME280;73701;52.234;21.288;2024-03-17T04:38:52;100584.88;;;3.18;77.55
83718;BME280;73701;52.234;21.288;2024-03-17T04:41:19;100617.28;;;3.45;76.38
83718;BME280;73701;52.234;21.288;2024-03-17T04:43:44;100565.22;;;3.14;76.49
83718;BME280;73701;52.234;21.288;2024-03-17T04:46:09;100616.41;;;3.51;76.95
83718;BME280;73701;52.234;21.288;2024-03-17T04:48:38;100617.25;;;3.52;79.27
83718;BME280;73701;52.234;21.288;2024-03-17T04:51:04;100614.66;;;3.55;79.34
83718;BME280;73701;52.234;21.288;2024-03-17T04:53:30;100618.09;;;3.55;77.77
83718;BME280;73701;52.234;21.288;2024-03-17T04:56:02;100615.53;;;3.54;76.68
83718;BME280;73701;52.234;21.288;2024-03-17T04:58:29;100619.78;;;3.61;76.31
83718;BME280;73701;52.234;21.288;2024-03-17T05:00:55;100604.38;;;3.61;76.92
83718;BME280;73701;52.234;21.288;2024-03-17T05:03:20;100607.75;;;3.66;77.17
83718;BME280;73701;52.234;21.288;2024-03-17T05:05:45;100612.00;;;3.72;76.79
83718;BME280;73701;52.234;21.288;2024-03-17T05:08:11;100617.09;;;3.79;76.35
83718;BME280;73701;52.234;21.288;2024-03-17T05:10:36;100607.66;;;3.80;74.29
83718;BME280;73701;52.234;21.288;2024-03-17T05:13:01;100570.16;;;3.51;74.45
83718;BME280;73701;52.234;21.288;2024-03-17T05:15:27;100614.50;;;3.83;74.34
83718;BME280;73701;52.234;21.288;2024-03-17T05:17:53;100617.06;;;3.86;73.63
83718;BME280;73701;52.234;21.288;2024-03-17T05:20:18;100624.72;;;3.92;73.77
83718;BME280;73701;52.234;21.288;2024-03-17T05:22:44;100620.41;;;3.97;73.79
83718;BME280;73701;52.234;21.288;2024-03-17T05:25:11;100612.72;;;3.94;72.96
83718;BME280;73701;52.234;21.288;2024-03-17T05:27:38;100616.97;;;4.01;73.93
83718;BME280;73701;52.234;21.288;2024-03-17T05:30:03;100587.97;;;3.79;74.21
83718;BME280;73701;52.234;21.288;2024-03-17T05:32:29;100621.25;;;4.04;73.67
83718;BME280;73701;52.234;21.288;2024-03-17T05:34:54;100609.28;;;3.92;73.61
83718;BME280;73701;52.234;21.288;2024-03-17T05:37:20;100615.34;;;3.89;74.17
83718;BME280;73701;52.234;21.288;2024-03-17T05:39:45;100598.22;;;3.87;73.54
83718;BME280;73701;52.234;21.288;2024-03-17T05:42:11;100618.69;;;4.02;73.63
83718;BME280;73701;52.234;21.288;2024-03-17T05:44:37;100615.28;;;3.95;73.27
83718;BME280;73701;52.234;21.288;2024-03-17T05:47:16;100625.59;;;3.92;73.76
83718;BME280;73701;52.234;21.288;2024-03-17T05:49:42;100625.59;;;3.92;74.32
83718;BME280;73701;52.234;21.288;2024-03-17T05:52:07;100630.72;;;3.94;74.47
83718;BME280;73701;52.234;21.288;2024-03-17T05:54:33;100633.28;;;3.94;74.63
83718;BME280;73701;52.234;21.288;2024-03-17T05:56:59;100631.53;;;3.97;74.98
83718;BME280;73701;52.234;21.288;2024-03-17T05:59:24;100501.84;;;3.18;75.71
83718;BME280;73701;52.234;21.288;2024-03-17T06:01:49;100629.75;;;4.07;75.77
83718;BME280;73701;52.234;21.288;2024-03-17T06:04:14;100636.56;;;4.14;75.99
83718;BME280;73701;52.234;21.288;2024-03-17T06:06:40;100608.38;;;4.04;77.10
83718;BME280;73701;52.234;21.288;2024-03-17T06:09:05;100630.44;;;4.34;77.13
83718;BME280;73701;52.234;21.288;2024-03-17T06:11:34;100635.59;;;4.31;77.32
83718;BME280;73701;52.234;21.288;2024-03-17T06:13:59;100626.25;;;4.22;77.64
83718;BME280;73701;52.234;21.288;2024-03-17T06:16:29;100638.19;;;4.31;76.58
83718;BME280;73701;52.234;21.288;2024-03-17T06:18:56;100593.81;;;4.03;76.97
83718;BME280;73701;52.234;21.288;2024-03-17T06:21:21;100629.59;;;4.32;76.65
83718;BME280;73701;52.234;21.288;2024-03-17T06:23:46;100637.28;;;4.35;76.41
83718;BME280;73701;52.234;21.288;2024-03-17T06:26:12;100638.94;;;4.42;76.13
83718;BME280;73701;52.234;21.288;2024-03-17T06:28:38;100608.09;;;4.42;74.26
83718;BME280;73701;52.234;21.288;2024-03-17T06:31:03;100625.81;;;4.70;73.10
83718;BME280;73701;52.234;21.288;2024-03-17T06:33:32;100638.63;;;4.79;72.96
83718;BME280;73701;52.234;21.288;2024-03-17T06:35:57;100637.75;;;4.82;72.93
83718;BME280;73701;52.234;21.288;2024-03-17T06:38:23;100660.94;;;4.80;73.49
83718;BME280;73701;52.234;21.288;2024-03-17T06:40:49;100630.78;;;4.89;72.57
83718;BME280;73701;52.234;21.288;2024-03-17T06:43:15;100621.44;;;4.84;72.61
83718;BME280;73701;52.234;21.288;2024-03-17T06:45:41;100640.19;;;4.93;71.68
83718;BME280;73701;52.234;21.288;2024-03-17T06:48:06;100630.03;;;4.77;71.97
83718;BME280;73701;52.234;21.288;2024-03-17T06:50:32;100619.72;;;4.83;72.58
83718;BME280;73701;52.234;21.288;2024-03-17T06:52:57;100629.88;;;4.94;72.10
83718;BME280;73701;52.234;21.288;2024-03-17T06:55:22;100613.59;;;4.94;71.14
83718;BME280;73701;52.234;21.288;2024-03-17T06:57:47;100625.63;;;4.92;68.41
83718;BME280;73701;52.234;21.288;2024-03-17T07:00:14;100642.72;;;5.00;69.12
83718;BME280;73701;52.234;21.288;2024-03-17T07:02:40;100474.56;;;4.21;69.78
83718;BME280;73701;52.234;21.288;2024-03-17T07:05:12;100561.28;;;4.89;69.72
83718;BME280;73701;52.234;21.288;2024-03-17T07:07:42;100587.81;;;4.97;69.27
83718;BME280;73701;52.234;21.288;2024-03-17T07:10:07;100467.81;;;4.07;67.83
83718;BME280;73701;52.234;21.288;2024-03-17T07:12:33;100637.53;;;5.02;68.91
83718;BME280;73701;52.234;21.288;2024-03-17T07:14:59;100623.81;;;5.00;69.49
83718;BME280;73701;52.234;21.288;2024-03-17T07:17:24;100628.84;;;5.12;70.02
83718;BME280;73701;52.234;21.288;2024-03-17T07:19:49;100638.38;;;5.04;67.82
83718;BME280;73701;52.234;21.288;2024-03-17T07:22:14;100649.41;;;5.14;68.27
83718;BME280;73701;52.234;21.288;2024-03-17T07:24:40;100641.53;;;5.28;68.82
83718;BME280;73701;52.234;21.288;2024-03-17T07:27:05;100647.56;;;5.27;68.51
83718;BME280;73701;52.234;21.288;2024-03-17T07:29:33;100636.59;;;5.09;67.95
83718;BME280;73701;52.234;21.288;2024-03-17T07:31:59;100647.75;;;5.10;67.70
83718;BME280;73701;52.234;21.288;2024-03-17T07:34:24;100637.56;;;5.00;68.37
83718;BME280;73701;52.234;21.288;2024-03-17T07:36:49;100653.66;;;5.19;68.33
83718;BME280;73701;52.234;21.288;2024-03-17T07:39:14;100558.25;;;4.51;68.84
83718;BME280;73701;52.234;21.288;2024-03-17T07:41:41;100647.50;;;5.31;70.25
83718;BME280;73701;52.234;21.288;2024-03-17T07:44:06;100647.56;;;5.27;68.49
83718;BME280;73701;52.234;21.288;2024-03-17T07:46:32;100658.66;;;5.33;69.28
83718;BME280;73701;52.234;21.288;2024-03-17T07:48:57;100550.50;;;4.56;69.24
83718;BME280;73701;52.234;21.288;2024-03-17T07:51:23;100654.50;;;5.22;68.61
83718;BME280;73701;52.234;21.288;2024-03-17T07:53:48;100654.38;;;5.31;69.40
83718;BME280;73701;52.234;21.288;2024-03-17T07:56:15;100641.59;;;5.25;68.63
83718;BME280;73701;52.234;21.288;2024-03-17T07:58:42;100652.66;;;5.30;68.75
83718;BME280;73701;52.234;21.288;2024-03-17T08:01:09;100654.56;;;5.15;68.76
83718;BME280;73701;52.234;21.288;2024-03-17T08:03:36;100660.50;;;5.22;69.65
83718;BME280;73701;52.234;21.288;2024-03-17T08:06:04;100657.88;;;5.25;69.64
83718;BME280;73701;52.234;21.288;2024-03-17T08:08:30;100662.22;;;5.22;69.15
83718;BME280;73701;52.234;21.288;2024-03-17T08:10:56;100658.69;;;5.32;70.14
83718;BME280;73701;52.234;21.288;2024-03-17T08:13:21;100655.97;;;5.43;70.21
83718;BME280;73701;52.234;21.288;2024-03-17T08:15:55;100650.56;;;5.64;71.12
83718;BME280;73701;52.234;21.288;2024-03-17T08:18:21;100646.25;;;5.65;69.06
83718;BME280;73701;52.234;21.288;2024-03-17T08:20:46;100659.28;;;5.51;68.48
83718;BME280;73701;52.234;21.288;2024-03-17T08:23:13;100645.66;;;5.43;69.05
83718;BME280;73701;52.234;21.288;2024-03-17T08:25:38;100655.91;;;5.49;69.15
83718;BME280;73701;52.234;21.288;2024-03-17T08:28:04;100645.50;;;5.55;69.67
83718;BME280;73701;52.234;21.288;2024-03-17T08:30:30;100509.31;;;4.57;69.34
83718;BME280;73701;52.234;21.288;2024-03-17T08:32:59;100644.53;;;5.64;69.33
83718;BME280;73701;52.234;21.288;2024-03-17T08:35:24;100641.13;;;5.62;69.98
83718;BME280;73701;52.234;21.288;2024-03-17T08:37:50;100642.47;;;5.91;68.58
83718;BME280;73701;52.234;21.288;2024-03-17T08:40:21;100635.00;;;5.70;67.74
83718;BME280;73701;52.234;21.288;2024-03-17T08:42:48;100639.28;;;5.73;69.96
83718;BME280;73701;52.234;21.288;2024-03-17T08:45:13;100622.88;;;5.76;70.33
83718;BME280;73701;52.234;21.288;2024-03-17T08:47:39;100595.84;;;5.42;67.61
83718;BME280;73701;52.234;21.288;2024-03-17T08:50:05;100620.63;;;5.52;68.86
83718;BME280;73701;52.234;21.288;2024-03-17T08:52:33;100642.50;;;5.87;69.61
83718;BME280;73701;52.234;21.288;2024-03-17T08:54:58;100650.94;;;6.02;69.07
83718;BME280;73701;52.234;21.288;2024-03-17T08:57:24;100618.00;;;5.59;67.76
83718;BME280;73701;52.234;21.288;2024-03-17T08:59:50;100643.72;;;5.62;67.80
83718;BME280;73701;52.234;21.288;2024-03-17T09:02:18;100644.34;;;5.78;67.30
83718;BME280;73701;52.234;21.288;2024-03-17T09:04:45;100638.25;;;5.85;68.31
83718;BME280;73701;52.234;21.288;2024-03-17T09:07:10;100645.09;;;5.86;67.85
83718;BME280;73701;52.234;21.288;2024-03-17T09:09:35;100655.34;;;5.91;68.32
83718;BME280;73701;52.234;21.288;2024-03-17T09:12:00;100653.81;;;5.79;68.06
83718;BME280;73701;52.234;21.288;2024-03-17T09:14:26;100642.88;;;5.60;68.38
83718;BME280;73701;52.234;21.288;2024-03-17T09:16:51;100589.16;;;5.29;67.86
83718;BME280;73701;52.234;21.288;2024-03-17T09:19:16;100659.78;;;5.81;68.30
83718;BME280;73701;52.234;21.288;2024-03-17T09:21:42;100651.88;;;5.95;68.52
83718;BME280;73701;52.234;21.288;2024-03-17T09:24:07;100646.69;;;5.96;67.95
83718;BME280;73701;52.234;21.288;2024-03-17T09:26:33;100652.66;;;6.01;68.67
83718;BME280;73701;52.234;21.288;2024-03-17T09:28:59;100654.50;;;5.92;66.83
83718;BME280;73701;52.234;21.288;2024-03-17T09:31:24;100650.44;;;5.74;67.11
83718;BME280;73701;52.234;21.288;2024-03-17T09:33:50;100647.91;;;5.70;67.50
83718;BME280;73701;52.234;21.288;2024-03-17T09:36:15;100652.06;;;5.79;68.31
83718;BME280;73701;52.234;21.288;2024-03-17T09:38:41;100658.09;;;5.78;67.90
83718;BME280;73701;52.234;21.288;2024-03-17T09:41:07;100631.75;;;5.58;68.95
83718;BME280;73701;52.234;21.288;2024-03-17T09:43:34;100632.03;;;5.34;68.72
83718;BME280;73701;52.234;21.288;2024-03-17T09:46:04;100610.88;;;5.06;70.15
83718;BME280;73701;52.234;21.288;2024-03-17T09:48:29;100661.34;;;5.21;71.54
83718;BME280;73701;52.234;21.288;2024-03-17T09:51:02;100605.78;;;5.01;71.51
83718;BME280;73701;52.234;21.288;2024-03-17T09:53:33;100659.50;;;5.32;72.94
83718;BME280;73701;52.234;21.288;2024-03-17T09:56:01;100607.78;;;4.76;74.65
83718;BME280;73701;52.234;21.288;2024-03-17T09:58:28;100335.25;;;2.90;72.72
83718;BME280;73701;52.234;21.288;2024-03-17T10:00:53;100671.78;;;5.12;75.36
83718;BME280;73701;52.234;21.288;2024-03-17T10:03:41;100661.47;;;5.09;75.00
83718;BME280;73701;52.234;21.288;2024-03-17T10:06:08;100667.44;;;5.14;74.87
83718;BME280;73701;52.234;21.288;2024-03-17T10:08:40;100596.59;;;4.80;73.05
83718;BME280;73701;52.234;21.288;2024-03-17T10:11:05;100677.03;;;5.01;71.60
83718;BME280;73701;52.234;21.288;2024-03-17T10:13:30;100651.38;;;4.89;72.02
83718;BME280;73701;52.234;21.288;2024-03-17T10:15:56;100667.53;;;5.08;71.95
83718;BME280;73701;52.234;21.288;2024-03-17T10:18:24;100674.19;;;5.24;72.30
83718;BME280;73701;52.234;21.288;2024-03-17T10:20:49;100668.00;;;5.42;72.12
83718;BME280;73701;52.234;21.288;2024-03-17T10:23:21;100668.69;;;5.57;71.46
83718;BME280;73701;52.234;21.288;2024-03-17T10:25:46;100673.97;;;5.44;69.86
83718;BME280;73701;52.234;21.288;2024-03-17T10:28:13;100674.91;;;5.40;69.13
83718;BME280;73701;52.234;21.288;2024-03-17T10:30:40;100661.84;;;5.52;70.66
83718;BME280;73701;52.234;21.288;2024-03-17T10:33:06;100659.03;;;5.73;69.47
83718;BME280;73701;52.234;21.288;2024-03-17T10:35:35;100594.34;;;5.26;70.15
83718;BME280;73701;52.234;21.288;2024-03-17T10:38:04;100660.88;;;5.61;68.60
83718;BME280;73701;52.234;21.288;2024-03-17T10:40:30;100657.44;;;5.62;68.18
83718;BME280;73701;52.234;21.288;2024-03-17T10:42:57;100654.13;;;5.52;68.34
83718;BME280;73701;52.234;21.288;2024-03-17T10:45:23;100669.53;;;5.59;67.91
83718;BME280;73701;52.234;21.288;2024-03-17T10:47:50;100668.69;;;5.57;67.77
83718;BME280;73701;52.234;21.288;2024-03-17T10:50:23;100666.88;;;5.63;67.02
83718;BME280;73701;52.234;21.288;2024-03-17T10:52:52;100661.56;;;5.74;68.14
83718;BME280;73701;52.234;21.288;2024-03-17T10:55:25;100668.69;;;5.55;68.18
83718;BME280;73701;52.234;21.288;2024-03-17T10:57:52;100626.84;;;5.38;68.20
83718;BME280;73701;52.234;21.288;2024-03-17T11:00:20;100662.00;;;5.42;68.97
83718;BME280;73701;52.234;21.288;2024-03-17T11:02:51;100483.66;;;4.51;69.60
83718;BME280;73701;52.234;21.288;2024-03-17T11:05:23;100665.16;;;5.62;70.46
83718;BME280;73701;52.234;21.288;2024-03-17T11:07:51;100595.31;;;5.15;71.40
83718;BME280;73701;52.234;21.288;2024-03-17T11:10:28;100641.63;;;5.18;71.06
83718;BME280;73701;52.234;21.288;2024-03-17T11:12:54;100660.38;;;5.34;71.70
83718;BME280;73701;52.234;21.288;2024-03-17T11:20:39;100656.31;;;5.13;72.86
83718;BME280;73701;52.234;21.288;2024-03-17T11:23:05;100667.50;;;5.09;74.53
83718;BME280;73701;52.234;21.288;2024-03-17T11:28:09;100662.28;;;5.15;76.68
83718;BME280;73701;52.234;21.288;2024-03-17T11:39:01;100677.72;;;5.15;77.95
83718;BME280;73701;52.234;21.288;2024-03-17T11:46:45;100616.50;;;4.60;80.02
83718;BME280;73701;52.234;21.288;2024-03-17T11:49:30;100673.59;;;5.02;81.27
83718;BME280;73701;52.234;21.288;2024-03-17T11:52:00;100674.38;;;5.07;80.77
83718;BME280;73701;52.234;21.288;2024-03-17T11:54:28;100670.88;;;5.14;80.50
83718;BME280;73701;52.234;21.288;2024-03-17T11:56:56;100676.91;;;5.12;78.00
83718;BME280;73701;52.234;21.288;2024-03-17T11:59:25;100674.41;;;5.04;77.92
83718;BME280;73701;52.234;21.288;2024-03-17T12:01:50;100676.94;;;5.10;77.31
83718;BME280;73701;52.234;21.288;2024-03-17T12:04:21;100683.75;;;5.13;78.18
83718;BME280;73701;52.234;21.288;2024-03-17T12:06:56;100625.19;;;4.48;77.65
83718;BME280;73701;52.234;21.288;2024-03-17T12:09:27;100634.75;;;4.27;79.33
83718;BME280;73701;52.234;21.288;2024-03-17T12:14:24;100701.34;;;4.69;80.95
83718;BME280;73701;52.234;21.288;2024-03-17T12:16:59;100657.03;;;4.30;80.86
83718;BME280;73701;52.234;21.288;2024-03-17T12:19:25;100650.19;;;4.32;81.95
83718;BME280;73701;52.234;21.288;2024-03-17T12:21:55;100689.44;;;4.53;81.71
83718;BME280;73701;52.234;21.288;2024-03-17T12:24:22;100681.72;;;4.53;82.01
83718;BME280;73701;52.234;21.288;2024-03-17T12:26:49;100656.91;;;4.45;81.55
83718;BME280;73701;52.234;21.288;2024-03-17T12:29:36;100678.19;;;4.69;80.80
83718;BME280;73701;52.234;21.288;2024-03-17T12:32:04;100676.38;;;4.80;80.21
83718;BME280;73701;52.234;21.288;2024-03-17T12:34:33;100672.06;;;4.81;79.21
83718;BME280;73701;52.234;21.288;2024-03-17T12:37:02;100674.53;;;4.93;79.88
83718;BME280;73701;52.234;21.288;2024-03-17T12:39:28;100666.69;;;5.03;78.62
83718;BME280;73701;52.234;21.288;2024-03-17T12:42:23;100666.50;;;5.23;77.09
83718;BME280;73701;52.234;21.288;2024-03-17T12:47:21;100653.53;;;5.30;74.18
83718;BME280;73701;52.234;21.288;2024-03-17T12:49:52;100557.06;;;4.83;74.02
83718;BME280;73701;52.234;21.288;2024-03-17T12:54:43;100654.75;;;5.73;73.09
83718;BME280;73701;52.234;21.288;2024-03-17T12:57:15;100647.38;;;5.44;71.08
83718;BME280;73701;52.234;21.288;2024-03-17T13:00:00;100649.84;;;5.51;72.78
83718;BME280;73701;52.234;21.288;2024-03-17T13:02:44;100653.28;;;5.52;72.37
83718;BME280;73701;52.234;21.288;2024-03-17T13:05:15;100583.44;;;5.05;72.44
83718;BME280;73701;52.234;21.288;2024-03-17T13:07:42;100644.91;;;5.36;73.05
83718;BME280;73701;52.234;21.288;2024-03-17T13:10:07;100665.56;;;5.30;72.66
83718;BME280;73701;52.234;21.288;2024-03-17T13:12:36;100666.44;;;5.29;73.65
83718;BME280;73701;52.234;21.288;2024-03-17T13:15:01;100611.72;;;5.07;74.48
83718;BME280;73701;52.234;21.288;2024-03-17T13:17:27;100662.72;;;5.51;75.64